KLM1314 EPWA-EHAM
Flight info
| Callsign | KLM1314 |
|---|---|
| Flight time | 1h 43m |
| Altitude | 36000 |
| Route | LOLSI T174 INDIG DCT GOVEN DCT NORKU |
| Aircraft | B738/M-SDE2E3FGIJ1RWYZ/LB1 |
Departure
| Time | 2026-05-05 10:37 |
|---|---|
| Airport | Warsaw Chopin Airport (EPWA) |
Arrival
| Time | 2026-05-05 12:21 |
|---|---|
| Airport | Amsterdam Airport Schiphol (EHAM) |
| Time | Latitude | Longitude | Altitude | Speed | Heading |
|---|---|---|---|---|---|
| 2026-05-05 09:52 | 52.17046 | 20.97094 | 338 ft | 0 kts | 70° |
| 2026-05-05 10:27 | 52.17045 | 20.97091 | 338 ft | 2 kts | 70° |
| 2026-05-05 10:27 | 52.17037 | 20.97051 | 338 ft | 4 kts | 72° |
| 2026-05-05 10:28 | 52.17029 | 20.97009 | 332 ft | 4 kts | 79° |
| 2026-05-05 10:28 | 52.17028 | 20.96967 | 333 ft | 4 kts | 110° |
| 2026-05-05 10:28 | 52.17035 | 20.96947 | 338 ft | 0 kts | 152° |
| 2026-05-05 10:32 | 52.17024 | 20.96957 | 337 ft | 4 kts | 152° |
| 2026-05-05 10:32 | 52.16987 | 20.96990 | 335 ft | 8 kts | 152° |
| 2026-05-05 10:32 | 52.16922 | 20.97045 | 336 ft | 12 kts | 152° |
| 2026-05-05 10:33 | 52.16849 | 20.97109 | 337 ft | 12 kts | 152° |
| 2026-05-05 10:33 | 52.16778 | 20.97171 | 337 ft | 11 kts | 151° |
| 2026-05-05 10:33 | 52.16709 | 20.97232 | 336 ft | 11 kts | 152° |
| 2026-05-05 10:33 | 52.16641 | 20.97291 | 338 ft | 11 kts | 152° |
| 2026-05-05 10:34 | 52.16580 | 20.97357 | 335 ft | 11 kts | 126° |
| 2026-05-05 10:34 | 52.16558 | 20.97427 | 335 ft | 10 kts | 115° |
| 2026-05-05 10:34 | 52.16529 | 20.97531 | 335 ft | 10 kts | 115° |
| 2026-05-05 10:34 | 52.16491 | 20.97666 | 337 ft | 10 kts | 114° |
| 2026-05-05 10:35 | 52.16472 | 20.97733 | 336 ft | 9 kts | 114° |
| 2026-05-05 10:35 | 52.16432 | 20.97807 | 336 ft | 9 kts | 169° |
| 2026-05-05 10:35 | 52.16383 | 20.97782 | 336 ft | 3 kts | 205° |
| 2026-05-05 10:35 | 52.16378 | 20.97777 | 337 ft | 1 kts | 205° |
| 2026-05-05 10:36 | 52.16358 | 20.97763 | 338 ft | 5 kts | 205° |
| 2026-05-05 10:36 | 52.16313 | 20.97726 | 335 ft | 8 kts | 214° |
| 2026-05-05 10:36 | 52.16315 | 20.97637 | 337 ft | 10 kts | 294° |
| 2026-05-05 10:36 | 52.16414 | 20.97282 | 333 ft | 68 kts | 295° |
| 2026-05-05 10:37 | 52.16706 | 20.96247 | 337 ft | 131 kts | 294° |
| 2026-05-05 10:37 | 52.17131 | 20.94680 | 496 ft | 165 kts | 292° |
| 2026-05-05 10:37 | 52.17614 | 20.92914 | 1047 ft | 176 kts | 292° |
| 2026-05-05 10:37 | 52.18116 | 20.91078 | 1681 ft | 182 kts | 289° |
| 2026-05-05 10:38 | 52.18236 | 20.88896 | 1971 ft | 206 kts | 263° |
| 2026-05-05 10:38 | 52.18077 | 20.86477 | 2243 ft | 230 kts | 263° |
| 2026-05-05 10:38 | 52.17944 | 20.83791 | 2586 ft | 246 kts | 266° |
| 2026-05-05 10:38 | 52.18201 | 20.80909 | 2935 ft | 266 kts | 284° |
| 2026-05-05 10:39 | 52.18670 | 20.78028 | 3926 ft | 259 kts | 282° |
| 2026-05-05 10:39 | 52.19093 | 20.75165 | 4801 ft | 259 kts | 281° |
| 2026-05-05 10:39 | 52.19505 | 20.72280 | 5554 ft | 263 kts | 279° |
| 2026-05-05 10:39 | 52.19545 | 20.69313 | 6242 ft | 262 kts | 253° |
| 2026-05-05 10:40 | 52.18956 | 20.66513 | 7001 ft | 262 kts | 248° |
| 2026-05-05 10:40 | 52.18326 | 20.63738 | 7710 ft | 265 kts | 248° |
| 2026-05-05 10:40 | 52.17686 | 20.60902 | 8470 ft | 267 kts | 248° |
| 2026-05-05 10:40 | 52.17046 | 20.58038 | 9182 ft | 270 kts | 248° |
| 2026-05-05 10:41 | 52.16400 | 20.55141 | 9886 ft | 273 kts | 248° |
| 2026-05-05 10:41 | 52.15751 | 20.52220 | 10572 ft | 275 kts | 248° |
| 2026-05-05 10:41 | 52.15276 | 20.49178 | 11146 ft | 287 kts | 264° |
| 2026-05-05 10:41 | 52.15354 | 20.45791 | 11336 ft | 311 kts | 271° |
| 2026-05-05 10:42 | 52.15697 | 20.38359 | 11732 ft | 348 kts | 271° |
| 2026-05-05 10:42 | 52.15896 | 20.34384 | 12286 ft | 354 kts | 272° |
| 2026-05-05 10:42 | 52.16136 | 20.30387 | 13032 ft | 354 kts | 273° |
| 2026-05-05 10:43 | 52.16388 | 20.26390 | 13774 ft | 355 kts | 273° |
| 2026-05-05 10:43 | 52.16640 | 20.22362 | 14427 ft | 358 kts | 273° |
| 2026-05-05 10:43 | 52.16889 | 20.18296 | 15027 ft | 363 kts | 273° |
| 2026-05-05 10:43 | 52.17138 | 20.14183 | 15647 ft | 367 kts | 273° |
| 2026-05-05 10:44 | 52.17386 | 20.10027 | 16278 ft | 370 kts | 273° |
| 2026-05-05 10:44 | 52.17634 | 20.05821 | 16888 ft | 374 kts | 273° |
| 2026-05-05 10:44 | 52.17880 | 20.01627 | 17482 ft | 378 kts | 273° |
| 2026-05-05 10:44 | 52.18131 | 19.97333 | 18074 ft | 382 kts | 273° |
| 2026-05-05 10:45 | 52.18382 | 19.92987 | 18593 ft | 385 kts | 273° |
| 2026-05-05 10:45 | 52.18630 | 19.88662 | 19115 ft | 388 kts | 273° |
| 2026-05-05 10:45 | 52.18881 | 19.84255 | 19642 ft | 391 kts | 273° |
| 2026-05-05 10:45 | 52.19132 | 19.79817 | 20158 ft | 394 kts | 273° |
| 2026-05-05 10:46 | 52.19383 | 19.75346 | 20643 ft | 397 kts | 273° |
| 2026-05-05 10:46 | 52.19633 | 19.70844 | 21108 ft | 400 kts | 273° |
| 2026-05-05 10:46 | 52.19883 | 19.66309 | 21553 ft | 403 kts | 273° |
| 2026-05-05 10:46 | 52.20131 | 19.61798 | 21989 ft | 406 kts | 273° |
| 2026-05-05 10:47 | 52.20384 | 19.57182 | 22428 ft | 409 kts | 273° |
| 2026-05-05 10:47 | 52.20636 | 19.52542 | 22863 ft | 412 kts | 273° |
| 2026-05-05 10:47 | 52.20888 | 19.47869 | 23280 ft | 415 kts | 273° |
| 2026-05-05 10:47 | 52.21141 | 19.43159 | 23652 ft | 417 kts | 273° |
| 2026-05-05 10:48 | 52.21392 | 19.38423 | 24031 ft | 419 kts | 273° |
| 2026-05-05 10:48 | 52.21642 | 19.33680 | 24408 ft | 421 kts | 273° |
| 2026-05-05 10:48 | 52.21886 | 19.28976 | 24771 ft | 423 kts | 273° |
| 2026-05-05 10:48 | 52.22134 | 19.24183 | 25142 ft | 425 kts | 273° |
| 2026-05-05 10:49 | 52.22381 | 19.19363 | 25513 ft | 426 kts | 273° |
| 2026-05-05 10:49 | 52.22627 | 19.14529 | 25869 ft | 428 kts | 273° |
| 2026-05-05 10:49 | 52.22872 | 19.09674 | 26216 ft | 430 kts | 273° |
| 2026-05-05 10:49 | 52.23117 | 19.04790 | 26597 ft | 431 kts | 272° |
| 2026-05-05 10:50 | 52.23359 | 18.99925 | 27012 ft | 431 kts | 272° |
| 2026-05-05 10:50 | 52.23600 | 18.95039 | 27341 ft | 433 kts | 272° |
| 2026-05-05 10:50 | 52.23840 | 18.90117 | 27637 ft | 435 kts | 272° |
| 2026-05-05 10:50 | 52.24080 | 18.85169 | 27945 ft | 437 kts | 272° |
| 2026-05-05 10:51 | 52.24318 | 18.80222 | 28241 ft | 439 kts | 272° |
| 2026-05-05 10:51 | 52.24555 | 18.75235 | 28557 ft | 440 kts | 272° |
| 2026-05-05 10:51 | 52.24788 | 18.70310 | 28940 ft | 440 kts | 272° |
| 2026-05-05 10:51 | 52.25020 | 18.65339 | 29341 ft | 439 kts | 272° |
| 2026-05-05 10:52 | 52.25251 | 18.60358 | 29725 ft | 439 kts | 272° |
| 2026-05-05 10:52 | 52.25480 | 18.55395 | 30130 ft | 438 kts | 271° |
| 2026-05-05 10:52 | 52.25705 | 18.50429 | 30435 ft | 438 kts | 271° |
| 2026-05-05 10:52 | 52.25928 | 18.45475 | 30752 ft | 437 kts | 271° |
| 2026-05-05 10:53 | 52.26150 | 18.40521 | 31119 ft | 436 kts | 271° |
| 2026-05-05 10:53 | 52.26368 | 18.35602 | 31500 ft | 434 kts | 271° |
| 2026-05-05 10:53 | 52.26583 | 18.30701 | 31845 ft | 432 kts | 271° |
| 2026-05-05 10:53 | 52.26795 | 18.25810 | 32168 ft | 432 kts | 271° |
| 2026-05-05 10:54 | 52.27003 | 18.20972 | 32499 ft | 430 kts | 271° |
| 2026-05-05 10:54 | 52.27211 | 18.16094 | 32846 ft | 429 kts | 271° |
| 2026-05-05 10:54 | 52.27417 | 18.11241 | 33185 ft | 428 kts | 271° |
| 2026-05-05 10:54 | 52.27619 | 18.06390 | 33550 ft | 427 kts | 271° |
| 2026-05-05 10:55 | 52.27819 | 18.01549 | 33878 ft | 425 kts | 271° |
| 2026-05-05 10:55 | 52.28210 | 17.91900 | 33847 ft | 429 kts | 271° |
| 2026-05-05 10:56 | 52.28597 | 17.82181 | 33993 ft | 428 kts | 271° |
| 2026-05-05 10:56 | 52.28787 | 17.77339 | 34299 ft | 426 kts | 271° |
| 2026-05-05 10:56 | 52.28974 | 17.72532 | 34641 ft | 422 kts | 271° |
| 2026-05-05 10:56 | 52.29158 | 17.67749 | 34972 ft | 419 kts | 271° |
| 2026-05-05 10:57 | 52.29337 | 17.63045 | 35252 ft | 418 kts | 271° |
| 2026-05-05 10:57 | 52.29516 | 17.58294 | 35462 ft | 418 kts | 271° |
| 2026-05-05 10:57 | 52.29693 | 17.53530 | 35699 ft | 418 kts | 271° |
| 2026-05-05 10:57 | 52.29865 | 17.48847 | 35871 ft | 419 kts | 271° |
| 2026-05-05 10:58 | 52.30038 | 17.44079 | 35858 ft | 421 kts | 271° |
| 2026-05-05 10:58 | 52.30380 | 17.34519 | 35859 ft | 419 kts | 271° |
| 2026-05-05 10:59 | 52.30712 | 17.25056 | 35854 ft | 414 kts | 271° |
| 2026-05-05 10:59 | 52.31032 | 17.15727 | 35864 ft | 412 kts | 271° |
| 2026-05-05 11:00 | 52.31343 | 17.06390 | 35864 ft | 411 kts | 271° |
| 2026-05-05 11:00 | 52.31647 | 16.97052 | 35869 ft | 411 kts | 271° |
| 2026-05-05 11:01 | 52.31944 | 16.87709 | 35865 ft | 411 kts | 271° |
| 2026-05-05 11:01 | 52.32090 | 16.83022 | 35695 ft | 414 kts | 270° |
| 2026-05-05 11:01 | 52.32236 | 16.78284 | 35444 ft | 418 kts | 270° |
| 2026-05-05 11:01 | 52.32379 | 16.73592 | 35196 ft | 418 kts | 270° |
| 2026-05-05 11:02 | 52.32521 | 16.68859 | 34969 ft | 416 kts | 270° |
| 2026-05-05 11:02 | 52.32799 | 16.59447 | 34894 ft | 414 kts | 270° |
| 2026-05-05 11:03 | 52.33069 | 16.50013 | 34884 ft | 417 kts | 270° |
| 2026-05-05 11:03 | 52.33332 | 16.40568 | 34872 ft | 414 kts | 270° |
| 2026-05-05 11:04 | 52.33586 | 16.31169 | 34870 ft | 411 kts | 270° |
| 2026-05-05 11:04 | 52.33830 | 16.21884 | 34876 ft | 409 kts | 270° |
| 2026-05-05 11:05 | 52.34065 | 16.12625 | 34881 ft | 409 kts | 270° |
| 2026-05-05 11:05 | 52.34294 | 16.03326 | 34902 ft | 410 kts | 270° |
| 2026-05-05 11:06 | 52.34517 | 15.93970 | 34882 ft | 412 kts | 270° |
| 2026-05-05 11:06 | 52.34734 | 15.84589 | 34868 ft | 413 kts | 270° |
| 2026-05-05 11:07 | 52.34944 | 15.75164 | 34869 ft | 414 kts | 270° |
| 2026-05-05 11:07 | 52.35145 | 15.65793 | 34870 ft | 414 kts | 270° |
| 2026-05-05 11:08 | 52.35341 | 15.56342 | 34869 ft | 415 kts | 270° |
| 2026-05-05 11:08 | 52.35529 | 15.46890 | 34883 ft | 416 kts | 269° |
| 2026-05-05 11:09 | 52.35710 | 15.37433 | 34877 ft | 416 kts | 269° |
| 2026-05-05 11:09 | 52.35882 | 15.28033 | 34878 ft | 416 kts | 269° |
| 2026-05-05 11:10 | 52.36048 | 15.18574 | 34877 ft | 415 kts | 269° |
| 2026-05-05 11:10 | 52.36206 | 15.09133 | 34877 ft | 414 kts | 269° |
| 2026-05-05 11:11 | 52.36355 | 14.99718 | 34904 ft | 413 kts | 270° |
| 2026-05-05 11:11 | 52.36495 | 14.90363 | 34875 ft | 412 kts | 270° |
| 2026-05-05 11:12 | 52.36633 | 14.81020 | 34869 ft | 408 kts | 270° |
| 2026-05-05 11:12 | 52.36758 | 14.71722 | 34948 ft | 410 kts | 270° |
| 2026-05-05 11:12 | 52.36817 | 14.67062 | 35182 ft | 409 kts | 269° |
| 2026-05-05 11:13 | 52.36874 | 14.62470 | 35457 ft | 408 kts | 269° |
| 2026-05-05 11:13 | 52.36930 | 14.57839 | 35718 ft | 407 kts | 269° |
| 2026-05-05 11:13 | 52.36985 | 14.53185 | 35865 ft | 408 kts | 269° |
| 2026-05-05 11:14 | 52.37089 | 14.43831 | 35883 ft | 411 kts | 269° |
| 2026-05-05 11:14 | 52.37185 | 14.34574 | 35868 ft | 407 kts | 269° |
| 2026-05-05 11:15 | 52.37275 | 14.25301 | 35875 ft | 405 kts | 269° |
| 2026-05-05 11:15 | 52.37356 | 14.16086 | 35872 ft | 403 kts | 269° |
| 2026-05-05 11:16 | 52.37429 | 14.06979 | 35875 ft | 403 kts | 269° |
| 2026-05-05 11:16 | 52.37496 | 13.97778 | 35890 ft | 404 kts | 269° |
| 2026-05-05 11:17 | 52.37555 | 13.88633 | 35880 ft | 404 kts | 269° |
| 2026-05-05 11:17 | 52.37608 | 13.79385 | 35883 ft | 405 kts | 269° |
| 2026-05-05 11:18 | 52.37654 | 13.70136 | 35882 ft | 406 kts | 269° |
| 2026-05-05 11:18 | 52.37693 | 13.60918 | 35891 ft | 407 kts | 269° |
| 2026-05-05 11:19 | 52.37720 | 13.53191 | 35884 ft | 408 kts | 269° |
| 2026-05-05 11:19 | 52.37749 | 13.42367 | 35893 ft | 409 kts | 268° |
| 2026-05-05 11:20 | 52.37763 | 13.34620 | 35887 ft | 409 kts | 268° |
| 2026-05-05 11:20 | 52.37774 | 13.25302 | 35881 ft | 409 kts | 268° |
| 2026-05-05 11:21 | 52.37778 | 13.15977 | 35879 ft | 409 kts | 268° |
| 2026-05-05 11:21 | 52.37774 | 13.06708 | 35873 ft | 408 kts | 268° |
| 2026-05-05 11:22 | 52.37763 | 12.97395 | 35880 ft | 408 kts | 268° |
| 2026-05-05 11:22 | 52.37745 | 12.88169 | 35870 ft | 407 kts | 268° |
| 2026-05-05 11:23 | 52.37720 | 12.78903 | 35878 ft | 406 kts | 268° |
| 2026-05-05 11:23 | 52.37687 | 12.69640 | 35878 ft | 406 kts | 268° |
| 2026-05-05 11:24 | 52.37648 | 12.60451 | 35876 ft | 405 kts | 268° |
| 2026-05-05 11:24 | 52.37601 | 12.51198 | 35880 ft | 405 kts | 268° |
| 2026-05-05 11:25 | 52.37547 | 12.42033 | 35881 ft | 406 kts | 267° |
| 2026-05-05 11:25 | 52.37485 | 12.32749 | 35887 ft | 406 kts | 267° |
| 2026-05-05 11:26 | 52.37416 | 12.23502 | 35890 ft | 406 kts | 267° |
| 2026-05-05 11:26 | 52.37341 | 12.14306 | 35877 ft | 406 kts | 267° |
| 2026-05-05 11:27 | 52.37258 | 12.05067 | 35889 ft | 406 kts | 267° |
| 2026-05-05 11:27 | 52.37168 | 11.95810 | 35907 ft | 407 kts | 267° |
| 2026-05-05 11:28 | 52.37070 | 11.86535 | 35898 ft | 408 kts | 267° |
| 2026-05-05 11:28 | 52.36964 | 11.77218 | 35891 ft | 409 kts | 266° |
| 2026-05-05 11:29 | 52.36852 | 11.67940 | 35884 ft | 410 kts | 266° |
| 2026-05-05 11:29 | 52.36732 | 11.58618 | 35883 ft | 410 kts | 266° |
| 2026-05-05 11:30 | 52.36604 | 11.49265 | 35882 ft | 410 kts | 266° |
| 2026-05-05 11:30 | 52.36469 | 11.39980 | 35887 ft | 410 kts | 266° |
| 2026-05-05 11:31 | 52.36327 | 11.30631 | 35895 ft | 410 kts | 266° |
| 2026-05-05 11:31 | 52.36178 | 11.21341 | 35888 ft | 410 kts | 266° |
| 2026-05-05 11:32 | 52.36021 | 11.12002 | 35878 ft | 410 kts | 266° |
| 2026-05-05 11:32 | 52.35856 | 11.02676 | 35881 ft | 409 kts | 266° |
| 2026-05-05 11:33 | 52.35685 | 10.93355 | 35897 ft | 409 kts | 266° |
| 2026-05-05 11:33 | 52.35507 | 10.84107 | 35884 ft | 408 kts | 266° |
| 2026-05-05 11:34 | 52.35322 | 10.74818 | 35883 ft | 408 kts | 266° |
| 2026-05-05 11:34 | 52.35130 | 10.65579 | 35885 ft | 407 kts | 266° |
| 2026-05-05 11:35 | 52.34930 | 10.56308 | 35887 ft | 407 kts | 266° |
| 2026-05-05 11:35 | 52.34723 | 10.47019 | 35885 ft | 407 kts | 266° |
| 2026-05-05 11:36 | 52.34509 | 10.37810 | 35899 ft | 408 kts | 266° |
| 2026-05-05 11:36 | 52.34288 | 10.28534 | 35888 ft | 408 kts | 265° |
| 2026-05-05 11:37 | 52.34059 | 10.19274 | 35898 ft | 407 kts | 265° |
| 2026-05-05 11:37 | 52.33823 | 10.10008 | 35906 ft | 407 kts | 265° |
| 2026-05-05 11:38 | 52.33581 | 10.00760 | 35888 ft | 407 kts | 265° |
| 2026-05-05 11:38 | 52.33332 | 9.91569 | 35918 ft | 407 kts | 265° |
| 2026-05-05 11:39 | 52.33075 | 9.82311 | 35919 ft | 408 kts | 265° |
| 2026-05-05 11:39 | 52.32809 | 9.73047 | 35907 ft | 409 kts | 265° |
| 2026-05-05 11:40 | 52.32536 | 9.63725 | 35908 ft | 409 kts | 265° |
| 2026-05-05 11:40 | 52.32254 | 9.54404 | 35913 ft | 410 kts | 265° |
| 2026-05-05 11:41 | 52.31967 | 9.45121 | 35904 ft | 410 kts | 265° |
| 2026-05-05 11:41 | 52.31671 | 9.35805 | 35911 ft | 410 kts | 265° |
| 2026-05-05 11:42 | 52.31367 | 9.26472 | 35907 ft | 410 kts | 265° |
| 2026-05-05 11:42 | 52.31059 | 9.17216 | 35919 ft | 410 kts | 265° |
| 2026-05-05 11:43 | 52.30741 | 9.07904 | 35919 ft | 410 kts | 264° |
| 2026-05-05 11:43 | 52.30416 | 8.98603 | 35916 ft | 409 kts | 264° |
| 2026-05-05 11:44 | 52.30087 | 8.89373 | 35920 ft | 409 kts | 264° |
| 2026-05-05 11:44 | 52.29748 | 8.80084 | 35921 ft | 409 kts | 264° |
| 2026-05-05 11:45 | 52.29402 | 8.70812 | 35917 ft | 409 kts | 264° |
| 2026-05-05 11:45 | 52.29049 | 8.61533 | 35913 ft | 408 kts | 264° |
| 2026-05-05 11:46 | 52.28691 | 8.52323 | 35902 ft | 409 kts | 264° |
| 2026-05-05 11:46 | 52.28324 | 8.43057 | 35916 ft | 408 kts | 264° |
| 2026-05-05 11:47 | 52.27949 | 8.33794 | 35909 ft | 408 kts | 264° |
| 2026-05-05 11:47 | 52.27568 | 8.24538 | 35916 ft | 408 kts | 263° |
| 2026-05-05 11:48 | 52.26983 | 8.10697 | 35926 ft | 409 kts | 263° |
| 2026-05-05 11:48 | 52.26582 | 8.01408 | 35907 ft | 409 kts | 263° |
| 2026-05-05 11:49 | 52.26175 | 7.92137 | 35764 ft | 412 kts | 263° |
| 2026-05-05 11:49 | 52.25963 | 7.87414 | 35215 ft | 415 kts | 263° |
| 2026-05-05 11:49 | 52.25752 | 7.82713 | 34626 ft | 413 kts | 263° |
| 2026-05-05 11:50 | 52.25544 | 7.78101 | 34012 ft | 413 kts | 263° |
| 2026-05-05 11:50 | 52.25331 | 7.73440 | 33500 ft | 408 kts | 263° |
| 2026-05-05 11:50 | 52.25120 | 7.68855 | 33020 ft | 402 kts | 263° |
| 2026-05-05 11:50 | 52.24910 | 7.64314 | 32583 ft | 397 kts | 263° |
| 2026-05-05 11:51 | 52.24700 | 7.59846 | 32144 ft | 392 kts | 263° |
| 2026-05-05 11:51 | 52.24491 | 7.55423 | 31695 ft | 388 kts | 263° |
| 2026-05-05 11:51 | 52.24282 | 7.51055 | 31276 ft | 384 kts | 263° |
| 2026-05-05 11:51 | 52.24074 | 7.46720 | 30843 ft | 381 kts | 263° |
| 2026-05-05 11:52 | 52.23868 | 7.42480 | 30428 ft | 377 kts | 263° |
| 2026-05-05 11:52 | 52.23660 | 7.38227 | 30021 ft | 375 kts | 263° |
| 2026-05-05 11:52 | 52.23452 | 7.34001 | 29546 ft | 372 kts | 263° |
| 2026-05-05 11:52 | 52.23244 | 7.29803 | 29122 ft | 368 kts | 263° |
| 2026-05-05 11:53 | 52.23037 | 7.25646 | 28697 ft | 365 kts | 263° |
| 2026-05-05 11:53 | 52.22830 | 7.21525 | 28276 ft | 362 kts | 263° |
| 2026-05-05 11:53 | 52.22623 | 7.17438 | 27870 ft | 363 kts | 263° |
| 2026-05-05 11:53 | 52.22410 | 7.13270 | 27459 ft | 375 kts | 263° |
| 2026-05-05 11:54 | 52.22192 | 7.09027 | 27008 ft | 382 kts | 263° |
| 2026-05-05 11:54 | 52.21970 | 7.04714 | 26550 ft | 379 kts | 263° |
| 2026-05-05 11:54 | 52.21892 | 7.00417 | 26087 ft | 378 kts | 275° |
| 2026-05-05 11:54 | 52.22587 | 6.96299 | 25713 ft | 379 kts | 291° |
| 2026-05-05 11:55 | 52.23968 | 6.92601 | 25262 ft | 383 kts | 305° |
| 2026-05-05 11:55 | 52.25655 | 6.89235 | 24836 ft | 382 kts | 307° |
| 2026-05-05 11:55 | 52.27344 | 6.85973 | 24405 ft | 380 kts | 307° |
| 2026-05-05 11:55 | 52.29042 | 6.82666 | 23976 ft | 380 kts | 307° |
| 2026-05-05 11:56 | 52.30726 | 6.79324 | 23529 ft | 381 kts | 307° |
| 2026-05-05 11:56 | 52.32398 | 6.75966 | 23011 ft | 380 kts | 307° |
| 2026-05-05 11:56 | 52.34060 | 6.72616 | 22550 ft | 378 kts | 307° |
| 2026-05-05 11:56 | 52.35716 | 6.69281 | 22086 ft | 375 kts | 307° |
| 2026-05-05 11:57 | 52.37354 | 6.65977 | 21659 ft | 372 kts | 307° |
| 2026-05-05 11:57 | 52.38984 | 6.62688 | 21229 ft | 370 kts | 307° |
| 2026-05-05 11:57 | 52.40599 | 6.59422 | 20803 ft | 368 kts | 307° |
| 2026-05-05 11:57 | 52.42185 | 6.56215 | 20390 ft | 366 kts | 307° |
| 2026-05-05 11:58 | 52.43787 | 6.52969 | 19972 ft | 365 kts | 307° |
| 2026-05-05 11:58 | 52.45383 | 6.49732 | 19557 ft | 364 kts | 306° |
| 2026-05-05 11:58 | 52.46674 | 6.46204 | 19116 ft | 359 kts | 288° |
| 2026-05-05 11:58 | 52.47187 | 6.42228 | 18745 ft | 355 kts | 274° |
| 2026-05-05 11:59 | 52.47397 | 6.38247 | 18344 ft | 354 kts | 272° |
| 2026-05-05 11:59 | 52.47566 | 6.34206 | 17889 ft | 355 kts | 272° |
| 2026-05-05 11:59 | 52.47735 | 6.30145 | 17443 ft | 354 kts | 272° |
| 2026-05-05 11:59 | 52.47912 | 6.26127 | 17012 ft | 351 kts | 273° |
| 2026-05-05 12:00 | 52.48095 | 6.22198 | 16609 ft | 348 kts | 273° |
| 2026-05-05 12:00 | 52.48283 | 6.18264 | 16208 ft | 344 kts | 274° |
| 2026-05-05 12:00 | 52.48471 | 6.14359 | 15824 ft | 341 kts | 274° |
| 2026-05-05 12:00 | 52.48658 | 6.10498 | 15431 ft | 338 kts | 274° |
| 2026-05-05 12:01 | 52.48842 | 6.06670 | 15036 ft | 335 kts | 274° |
| 2026-05-05 12:01 | 52.49024 | 6.02863 | 14665 ft | 333 kts | 274° |
| 2026-05-05 12:01 | 52.49202 | 5.99092 | 14277 ft | 330 kts | 274° |
| 2026-05-05 12:01 | 52.49378 | 5.95343 | 13918 ft | 328 kts | 274° |
| 2026-05-05 12:02 | 52.49552 | 5.91613 | 13507 ft | 326 kts | 274° |
| 2026-05-05 12:02 | 52.49724 | 5.87914 | 13094 ft | 324 kts | 274° |
| 2026-05-05 12:02 | 52.49891 | 5.84294 | 12721 ft | 321 kts | 274° |
| 2026-05-05 12:02 | 52.50058 | 5.80661 | 12334 ft | 318 kts | 274° |
| 2026-05-05 12:03 | 52.50223 | 5.77054 | 11975 ft | 316 kts | 274° |
| 2026-05-05 12:03 | 52.50386 | 5.73468 | 11616 ft | 313 kts | 274° |
| 2026-05-05 12:03 | 52.50546 | 5.69905 | 11256 ft | 312 kts | 274° |
| 2026-05-05 12:03 | 52.50705 | 5.66357 | 10898 ft | 310 kts | 274° |
| 2026-05-05 12:04 | 52.50862 | 5.62840 | 10543 ft | 308 kts | 274° |
| 2026-05-05 12:04 | 52.50964 | 5.60514 | 10303 ft | 308 kts | 274° |
| 2026-05-05 12:04 | 52.51044 | 5.57022 | 10028 ft | 303 kts | 264° |
| 2026-05-05 12:04 | 52.50525 | 5.53756 | 9983 ft | 290 kts | 251° |
| 2026-05-05 12:05 | 52.49853 | 5.50673 | 9790 ft | 285 kts | 250° |
| 2026-05-05 12:05 | 52.49180 | 5.47630 | 9500 ft | 282 kts | 250° |
| 2026-05-05 12:05 | 52.48508 | 5.44595 | 9156 ft | 283 kts | 250° |
| 2026-05-05 12:05 | 52.47845 | 5.41581 | 8904 ft | 279 kts | 250° |
| 2026-05-05 12:06 | 52.47195 | 5.38613 | 8594 ft | 278 kts | 250° |
| 2026-05-05 12:06 | 52.46546 | 5.35637 | 8294 ft | 277 kts | 250° |
| 2026-05-05 12:06 | 52.45897 | 5.32660 | 7960 ft | 277 kts | 250° |
| 2026-05-05 12:06 | 52.45252 | 5.29698 | 7663 ft | 275 kts | 250° |
| 2026-05-05 12:07 | 52.44608 | 5.26745 | 7352 ft | 275 kts | 250° |
| 2026-05-05 12:07 | 52.43965 | 5.23791 | 7096 ft | 272 kts | 250° |
| 2026-05-05 12:07 | 52.43326 | 5.20863 | 6990 ft | 274 kts | 250° |
| 2026-05-05 12:07 | 52.42693 | 5.17965 | 6949 ft | 272 kts | 250° |
| 2026-05-05 12:08 | 52.42054 | 5.15040 | 6949 ft | 272 kts | 250° |
| 2026-05-05 12:08 | 52.41416 | 5.12128 | 6950 ft | 272 kts | 250° |
| 2026-05-05 12:08 | 52.40774 | 5.09197 | 6941 ft | 274 kts | 250° |
| 2026-05-05 12:08 | 52.40126 | 5.06244 | 6948 ft | 275 kts | 250° |
| 2026-05-05 12:09 | 52.39478 | 5.03293 | 6939 ft | 275 kts | 250° |
| 2026-05-05 12:09 | 52.38835 | 5.00371 | 6942 ft | 275 kts | 250° |
| 2026-05-05 12:09 | 52.38186 | 4.97425 | 6943 ft | 275 kts | 250° |
| 2026-05-05 12:09 | 52.37534 | 4.94474 | 6945 ft | 275 kts | 250° |
| 2026-05-05 12:10 | 52.36884 | 4.91529 | 6934 ft | 275 kts | 250° |
| 2026-05-05 12:10 | 52.36231 | 4.88577 | 6941 ft | 275 kts | 250° |
| 2026-05-05 12:10 | 52.35579 | 4.85632 | 6940 ft | 275 kts | 250° |
| 2026-05-05 12:10 | 52.34923 | 4.82675 | 6944 ft | 275 kts | 250° |
| 2026-05-05 12:11 | 52.34269 | 4.79732 | 6943 ft | 275 kts | 250° |
| 2026-05-05 12:11 | 52.33622 | 4.76827 | 6943 ft | 276 kts | 250° |
| 2026-05-05 12:11 | 52.32967 | 4.73883 | 6940 ft | 275 kts | 250° |
| 2026-05-05 12:11 | 52.32320 | 4.70935 | 6937 ft | 275 kts | 250° |
| 2026-05-05 12:12 | 52.31679 | 4.67990 | 6906 ft | 272 kts | 250° |
| 2026-05-05 12:12 | 52.31050 | 4.65084 | 6602 ft | 268 kts | 250° |
| 2026-05-05 12:12 | 52.30433 | 4.62222 | 6089 ft | 271 kts | 250° |
| 2026-05-05 12:12 | 52.29817 | 4.59374 | 5909 ft | 258 kts | 250° |
| 2026-05-05 12:13 | 52.29226 | 4.56674 | 5785 ft | 244 kts | 250° |
| 2026-05-05 12:13 | 52.28655 | 4.54089 | 5485 ft | 239 kts | 251° |
| 2026-05-05 12:13 | 52.28083 | 4.51533 | 5075 ft | 240 kts | 251° |
| 2026-05-05 12:13 | 52.27497 | 4.48996 | 4651 ft | 242 kts | 251° |
| 2026-05-05 12:14 | 52.26894 | 4.46435 | 4267 ft | 242 kts | 250° |
| 2026-05-05 12:14 | 52.26267 | 4.43937 | 4107 ft | 232 kts | 243° |
| 2026-05-05 12:14 | 52.25193 | 4.42082 | 3924 ft | 223 kts | 207° |
| 2026-05-05 12:14 | 52.23725 | 4.41511 | 3559 ft | 218 kts | 172° |
| 2026-05-05 12:15 | 52.22279 | 4.42193 | 3147 ft | 216 kts | 153° |
| 2026-05-05 12:15 | 52.20969 | 4.43270 | 3015 ft | 202 kts | 140° |
| 2026-05-05 12:15 | 52.20160 | 4.44938 | 3002 ft | 182 kts | 102° |
| 2026-05-05 12:15 | 52.19976 | 4.46911 | 3011 ft | 178 kts | 92° |
| 2026-05-05 12:16 | 52.19841 | 4.48922 | 3005 ft | 180 kts | 91° |
| 2026-05-05 12:16 | 52.20105 | 4.50858 | 2985 ft | 174 kts | 52° |
| 2026-05-05 12:16 | 52.20831 | 4.52406 | 2974 ft | 173 kts | 59° |
| 2026-05-05 12:16 | 52.21417 | 4.54150 | 2808 ft | 179 kts | 57° |
| 2026-05-05 12:17 | 52.22065 | 4.55842 | 2577 ft | 174 kts | 56° |
| 2026-05-05 12:17 | 52.22685 | 4.57446 | 2369 ft | 161 kts | 57° |
| 2026-05-05 12:17 | 52.23261 | 4.58951 | 2135 ft | 152 kts | 56° |
| 2026-05-05 12:17 | 52.23813 | 4.60397 | 1925 ft | 149 kts | 56° |
| 2026-05-05 12:18 | 52.24356 | 4.61816 | 1741 ft | 147 kts | 56° |
| 2026-05-05 12:18 | 52.24902 | 4.63244 | 1529 ft | 147 kts | 56° |
| 2026-05-05 12:18 | 52.25443 | 4.64659 | 1330 ft | 144 kts | 57° |
| 2026-05-05 12:18 | 52.25957 | 4.66004 | 1124 ft | 136 kts | 56° |
| 2026-05-05 12:19 | 52.26454 | 4.67303 | 944 ft | 136 kts | 55° |
| 2026-05-05 12:19 | 52.26961 | 4.68623 | 779 ft | 139 kts | 56° |
| 2026-05-05 12:19 | 52.27477 | 4.69978 | 583 ft | 142 kts | 55° |
| 2026-05-05 12:19 | 52.27994 | 4.71333 | 403 ft | 139 kts | 56° |
| 2026-05-05 12:20 | 52.28510 | 4.72686 | 203 ft | 141 kts | 57° |
| 2026-05-05 12:20 | 52.29031 | 4.74034 | 17 ft | 139 kts | 57° |
| 2026-05-05 12:20 | 52.29487 | 4.75224 | -4 ft | 97 kts | 58° |
| 2026-05-05 12:20 | 52.29752 | 4.75913 | -4 ft | 59 kts | 58° |
| 2026-05-05 12:21 | 52.29934 | 4.76389 | -5 ft | 27 kts | 56° |
| 2026-05-05 12:21 | 52.30071 | 4.76576 | -3 ft | 25 kts | 27° |
| 2026-05-05 12:21 | 52.30202 | 4.76690 | -2 ft | 18 kts | 28° |
| 2026-05-05 12:21 | 52.30293 | 4.76744 | -2 ft | 12 kts | 360° |
| 2026-05-05 12:22 | 52.30343 | 4.76670 | -2 ft | 10 kts | 269° |
| 2026-05-05 12:22 | 52.30332 | 4.76563 | -2 ft | 10 kts | 289° |
| 2026-05-05 12:22 | 52.30380 | 4.76492 | -2 ft | 8 kts | 327° |
| 2026-05-05 12:22 | 52.30394 | 4.76456 | -2 ft | 4 kts | 270° |
| 2026-05-05 12:23 | 52.30386 | 4.76419 | -2 ft | 3 kts | 240° |
| 2026-05-05 12:23 | 52.30377 | 4.76398 | -2 ft | 0 kts | 238° |